Terminal Aerodrome Forecast
Issued by NWS

Home | Current Version | Previous Version | Text Only | Print | Product List | Glossary On
Versions: 1 2 3 4 5 6 7 8 9 10 11 12 13
711
FTUS44 KEPZ 081136
TAFTCS
TAF
KTCS 081136Z 0812/0912 01015G22KT P6SM FEW030 BKN060
     FM081500 07013KT P6SM SCT060 SCT250
     FM090200 16010KT P6SM SCT250=

USA.gov is the U.S. government's official web portal to all federal, state and local government web resources and services.